ESND

Sveg Airport

Sweden
METAR ESND 231350Z AUTO 28013KT 9999 NCD 08/00 Q0999
Observed Flight Rules
Sep-23 @ 13:50 UTC (25 minutes ago) Visual Flight Rules
Wind Visibility Clouds
280° at 13 knots 10,000+ meters
Temperatures Readings
Current 8°C / 46°F
Dewpoint 0°C / 32°F
Humidity 57%
Altimeter 29.5" Hg
Pressure 999 hPa
Elevation 359
METAR ESND 231350Z AUTO 28013KT 9999 NCD 08/00 Q0999
Observed Flight Rules
Sep-23 @ 13:50 UTC
(25 minutes ago)
VFR
Wind Visibility
280° at 13 knots 10,000+ meters
Clouds
Temperature Dewpoint
8°C / 46°F 0°C / 32°F
Humidity Altimeter Pressure
57% 29.5" Hg 999 hPa